createdAt,value
2023-12-27T00:00:16.953Z,1.75
2023-12-27T00:05:19.983Z,4.00
2023-12-27T00:10:24.211Z,5.00
2023-12-27T00:15:27.076Z,4.00
2023-12-27T00:20:29.935Z,3.25
2023-12-27T00:25:34.154Z,1.50
2023-12-27T00:30:37.123Z,3.00
2023-12-27T00:35:40.028Z,2.25
2023-12-27T00:40:45.373Z,3.50
2023-12-27T00:45:48.207Z,2.00
2023-12-27T00:50:51.001Z,2.25
2023-12-27T00:55:56.411Z,2.00
2023-12-27T01:00:59.266Z,1.75
2023-12-27T01:06:02.240Z,2.00
2023-12-27T01:11:07.084Z,3.00
2023-12-27T01:16:10.258Z,3.00
2023-12-27T01:21:15.115Z,3.00
2023-12-27T01:26:19.373Z,1.50
2023-12-27T01:31:22.280Z,2.75
2023-12-27T01:36:25.182Z,2.00
2023-12-27T01:41:29.395Z,3.00
2023-12-27T01:46:32.871Z,2.50
2023-12-27T01:51:36.770Z,4.00
2023-12-27T01:56:45.358Z,3.00
2023-12-27T02:01:48.860Z,2.50
2023-12-27T02:06:53.129Z,2.25
2023-12-27T02:11:57.330Z,1.00
2023-12-27T02:17:01.885Z,1.75
2023-12-27T02:22:07.060Z,2.00
2023-12-27T02:27:11.337Z,2.00
2023-12-27T02:32:14.354Z,2.50
2023-12-27T02:37:17.193Z,5.75
2023-12-27T02:42:21.392Z,2.25
2023-12-27T02:47:24.253Z,1.50
2023-12-27T02:52:27.870Z,2.00
2023-12-27T02:57:32.113Z,2.00
2023-12-27T03:02:35.122Z,4.00
2023-12-27T03:07:37.893Z,1.75
2023-12-27T03:12:42.134Z,2.75
2023-12-27T03:17:45.055Z,1.00
2023-12-27T03:22:48.107Z,2.00
2023-12-27T03:27:52.263Z,1.00
2023-12-27T03:32:55.219Z,1.25
2023-12-27T03:37:58.383Z,1.00
2023-12-27T03:43:02.686Z,2.00
2023-12-27T03:48:06.341Z,2.00
2023-12-27T03:53:09.444Z,1.25
2023-12-27T03:58:13.606Z,2.00
2023-12-27T04:03:17.054Z,1.75
2023-12-27T04:08:19.947Z,1.25
2023-12-27T04:13:24.102Z,2.50
2023-12-27T04:18:27.118Z,1.25
2023-12-27T04:23:30.030Z,1.00
2023-12-27T04:28:34.436Z,1.00
2023-12-27T04:33:37.550Z,1.00
2023-12-27T04:38:40.881Z,1.00
2023-12-27T04:43:45.023Z,0.75
2023-12-27T04:48:47.999Z,1.50
2023-12-27T04:53:50.944Z,0.75
2023-12-27T04:58:55.182Z,2.50
2023-12-27T05:03:58.183Z,0.75
2023-12-27T05:09:05.247Z,2.25
2023-12-27T05:14:09.478Z,1.00
2023-12-27T05:19:12.334Z,1.00
2023-12-27T05:24:15.233Z,1.75
2023-12-27T05:29:19.421Z,1.25
2023-12-27T05:34:22.569Z,0.25
2023-12-27T05:39:25.518Z,1.00
2023-12-27T05:44:29.694Z,0.75
2023-12-27T05:49:32.585Z,1.00
2023-12-27T05:54:35.519Z,1.00
2023-12-27T05:59:39.864Z,1.00
2023-12-27T06:04:42.778Z,2.50
2023-12-27T06:09:45.558Z,1.00
2023-12-27T06:14:49.698Z,1.00
2023-12-27T06:19:52.525Z,0.25
2023-12-27T06:24:55.340Z,0.00
2023-12-27T06:29:59.542Z,1.25
2023-12-27T06:35:02.443Z,0.75
2023-12-27T06:40:06.628Z,2.00
2023-12-27T06:45:12.025Z,1.00
2023-12-27T06:50:15.094Z,2.00
2023-12-27T06:55:17.999Z,0.00
2023-12-27T07:00:22.586Z,0.00
2023-12-27T07:05:25.682Z,1.00
2023-12-27T07:10:28.602Z,1.00
2023-12-27T07:15:32.887Z,1.00
2023-12-27T07:20:35.781Z,1.50
2023-12-27T07:25:38.745Z,0.00
2023-12-27T07:30:43.278Z,1.00
2023-12-27T07:35:48.133Z,3.75
2023-12-27T07:40:50.981Z,0.00
2023-12-27T07:45:55.159Z,1.00
2023-12-27T07:50:58.070Z,0.25
2023-12-27T07:56:01.121Z,0.00
2023-12-27T08:01:05.851Z,0.75
2023-12-27T08:06:09.199Z,14.75
2023-12-27T08:11:12.150Z,19.75
2023-12-27T08:16:16.353Z,17.80
2023-12-27T08:21:19.348Z,16.25
2023-12-27T08:26:22.213Z,15.75
2023-12-27T08:31:26.480Z,13.50
2023-12-27T08:36:30.829Z,15.75
2023-12-27T08:41:34.016Z,12.50
2023-12-27T08:46:38.191Z,15.50
2023-12-27T08:51:41.159Z,12.25
2023-12-27T08:56:44.033Z,13.75
2023-12-27T09:01:48.782Z,12.00
2023-12-27T09:06:51.762Z,13.00
2023-12-27T09:11:54.642Z,12.25
2023-12-27T09:16:58.857Z,13.25
2023-12-27T09:22:03.862Z,13.00
2023-12-27T09:27:06.965Z,12.75
2023-12-27T09:32:11.459Z,14.25
2023-12-27T09:37:14.450Z,19.75
2023-12-27T09:42:18.426Z,15.75
2023-12-27T09:47:25.598Z,19.00
2023-12-27T09:52:30.875Z,16.50
2023-12-27T09:57:35.168Z,18.00
2023-12-27T10:02:43.367Z,13.00
2023-12-27T10:07:46.690Z,12.75
2023-12-27T10:12:51.378Z,13.75
2023-12-27T10:17:55.817Z,11.75
2023-12-27T10:22:58.814Z,10.25
2023-12-27T10:28:01.784Z,11.50
2023-12-27T10:33:06.974Z,12.75
2023-12-27T10:38:10.006Z,12.00
2023-12-27T10:43:12.831Z,14.00
2023-12-27T10:48:18.323Z,11.50
2023-12-27T10:53:22.154Z,10.75
2023-12-27T10:58:25.603Z,9.75
2023-12-27T11:03:31.839Z,9.75
2023-12-27T11:08:37.034Z,9.50
2023-12-27T11:13:40.738Z,9.00
2023-12-27T11:18:46.958Z,9.50
2023-12-27T11:23:50.005Z,14.00
2023-12-27T11:28:52.917Z,10.00
2023-12-27T11:33:57.591Z,10.00
2023-12-27T11:39:04.417Z,9.00
2023-12-27T11:44:09.337Z,13.25
2023-12-27T11:49:20.735Z,9.00
2023-12-27T11:54:25.513Z,9.75
2023-12-27T11:59:30.062Z,10.50
2023-12-27T12:04:46.023Z,8.00
2023-12-27T12:09:48.965Z,9.00
2023-12-27T12:14:56.234Z,8.50
2023-12-27T12:20:01.955Z,7.75
2023-12-27T12:25:08.854Z,7.50
2023-12-27T12:30:12.497Z,9.00
2023-12-27T12:35:17.437Z,11.75
2023-12-27T12:40:20.465Z,10.50
2023-12-27T12:45:23.704Z,9.50
2023-12-27T12:50:27.968Z,8.75
2023-12-27T12:55:31.353Z,9.25
2023-12-27T13:00:34.415Z,9.00
2023-12-27T13:05:42.435Z,8.75
2023-12-27T13:10:46.099Z,9.75
2023-12-27T13:15:49.106Z,9.00
2023-12-27T13:20:54.044Z,10.00
2023-12-27T13:25:56.915Z,9.75
2023-12-27T13:30:59.861Z,9.00
2023-12-27T13:36:04.314Z,9.00
2023-12-27T13:41:07.282Z,7.00
2023-12-27T13:46:11.228Z,8.50
2023-12-27T13:51:17.167Z,11.50
2023-12-27T13:56:20.376Z,9.75
2023-12-27T14:01:23.443Z,12.25
2023-12-27T14:06:27.784Z,8.25
2023-12-27T14:11:30.733Z,9.50
2023-12-27T14:16:33.902Z,8.50
2023-12-27T14:21:38.421Z,9.50
2023-12-27T14:26:43.388Z,9.00
2023-12-27T14:31:47.941Z,8.50
2023-12-27T14:36:52.179Z,10.25
2023-12-27T14:41:56.773Z,6.75
2023-12-27T14:46:59.659Z,9.75
2023-12-27T14:52:04.440Z,8.75
2023-12-27T14:57:07.259Z,9.25
2023-12-27T15:02:10.347Z,10.00
2023-12-27T15:07:14.618Z,7.75
2023-12-27T15:12:17.781Z,10.25
2023-12-27T15:17:20.612Z,6.75
2023-12-27T15:22:24.725Z,7.25
2023-12-27T15:27:27.680Z,7.00
2023-12-27T15:32:30.670Z,7.00
2023-12-27T15:37:34.838Z,7.75
2023-12-27T15:42:37.639Z,7.75
2023-12-27T15:47:40.664Z,6.50
2023-12-27T15:52:44.927Z,4.00
2023-12-27T15:57:47.825Z,5.75
2023-12-27T16:02:50.931Z,6.00
2023-12-27T16:07:55.208Z,5.50
2023-12-27T16:12:58.184Z,7.25
2023-12-27T16:18:01.920Z,6.50
2023-12-27T16:23:06.959Z,5.25
2023-12-27T16:28:10.331Z,6.00
2023-12-27T16:33:13.461Z,5.00
2023-12-27T16:38:17.794Z,5.00
2023-12-27T16:43:22.272Z,6.75
2023-12-27T16:48:25.320Z,7.50
2023-12-27T16:53:29.683Z,4.75
2023-12-27T16:58:32.530Z,7.00
2023-12-27T17:03:35.626Z,4.75
2023-12-27T17:08:39.963Z,4.75
2023-12-27T17:13:42.801Z,3.75
2023-12-27T17:18:45.828Z,5.50
2023-12-27T17:23:50.324Z,4.50
2023-12-27T17:28:53.275Z,6.00
2023-12-27T17:33:56.201Z,5.75
2023-12-27T17:39:00.618Z,4.75
2023-12-27T17:44:04.884Z,5.25
2023-12-27T17:49:08.116Z,4.00
2023-12-27T17:54:12.564Z,5.50
2023-12-27T17:59:15.484Z,5.00
2023-12-27T18:04:20.120Z,4.00
2023-12-27T18:09:25.665Z,3.00
2023-12-27T18:14:28.496Z,5.00
2023-12-27T18:19:31.458Z,4.25
2023-12-27T18:24:38.693Z,4.00
2023-12-27T18:29:42.127Z,4.00
2023-12-27T18:34:45.516Z,5.75
2023-12-27T18:39:49.876Z,5.75
2023-12-27T18:44:52.806Z,3.50
2023-12-27T18:49:55.736Z,4.00
2023-12-27T18:55:01.299Z,3.00
2023-12-27T19:00:05.675Z,3.25
2023-12-27T19:05:09.596Z,4.50
2023-12-27T19:10:13.949Z,4.50
2023-12-27T19:15:17.159Z,3.50
2023-12-27T19:20:20.651Z,3.50
2023-12-27T19:25:24.861Z,4.50
2023-12-27T19:30:28.339Z,4.00
2023-12-27T19:35:31.266Z,4.50
2023-12-27T19:40:35.470Z,4.25
2023-12-27T19:45:38.332Z,4.00
2023-12-27T19:50:41.982Z,4.00
2023-12-27T19:55:46.219Z,4.25
2023-12-27T20:00:50.003Z,5.00
2023-12-27T20:05:53.374Z,7.25
2023-12-27T20:10:57.690Z,5.75
2023-12-27T20:16:00.605Z,5.00
2023-12-27T20:21:05.076Z,4.00
2023-12-27T20:26:09.386Z,5.00
2023-12-27T20:31:12.431Z,4.25
2023-12-27T20:36:15.535Z,7.00
2023-12-27T20:41:21.521Z,6.00
2023-12-27T20:46:24.442Z,5.25
2023-12-27T20:51:27.419Z,5.00
2023-12-27T20:56:31.555Z,6.00
2023-12-27T21:01:39.566Z,4.50
2023-12-27T21:06:42.624Z,4.25
2023-12-27T21:11:46.796Z,4.50
2023-12-27T21:16:49.724Z,5.50
2023-12-27T21:21:52.666Z,5.25
2023-12-27T21:26:56.857Z,4.25
2023-12-27T21:31:59.776Z,5.00
2023-12-27T21:37:02.628Z,5.25
2023-12-27T21:42:07.108Z,4.00
2023-12-27T21:47:09.914Z,6.75
2023-12-27T21:52:12.741Z,6.50
2023-12-27T21:57:16.941Z,6.00
2023-12-27T22:02:19.896Z,4.75
2023-12-27T22:07:24.223Z,5.50
2023-12-27T22:12:28.552Z,4.25
2023-12-27T22:17:31.400Z,3.25
2023-12-27T22:22:34.246Z,5.25
2023-12-27T22:27:38.691Z,5.25
2023-12-27T22:32:41.770Z,2.50
2023-12-27T22:37:44.656Z,5.00
2023-12-27T22:42:49.009Z,3.50
2023-12-27T22:47:51.837Z,4.00
2023-12-27T22:52:54.949Z,6.50
2023-12-27T22:57:59.499Z,3.50
2023-12-27T23:03:02.640Z,3.50
2023-12-27T23:08:05.914Z,4.25
2023-12-27T23:13:10.083Z,4.25
2023-12-27T23:18:13.670Z,3.25
2023-12-27T23:23:16.704Z,4.25
2023-12-27T23:28:21.086Z,3.75
2023-12-27T23:33:26.233Z,6.75
2023-12-27T23:38:29.311Z,4.00
2023-12-27T23:43:33.531Z,3.75
2023-12-27T23:48:36.509Z,3.00
2023-12-27T23:53:39.511Z,4.00
2023-12-27T23:58:44.468Z,3.75
